createdAt,value
2022-11-04T00:02:03.053Z,11.60
2022-11-04T00:04:30.159Z,11.68
2022-11-04T00:06:57.208Z,11.68
2022-11-04T00:09:27.639Z,11.64
2022-11-04T00:12:12.625Z,11.63
2022-11-04T00:14:39.150Z,11.64
2022-11-04T00:17:23.417Z,11.65
2022-11-04T00:20:10.816Z,11.60
2022-11-04T00:22:56.634Z,11.56
2022-11-04T00:28:36.194Z,11.60
2022-11-04T00:31:24.112Z,11.58
2022-11-04T00:33:51.808Z,11.53
2022-11-04T00:36:18.484Z,11.57
2022-11-04T00:38:45.190Z,11.59
2022-11-04T00:41:27.283Z,11.60
2022-11-04T00:44:02.640Z,11.56
2022-11-04T00:46:31.150Z,11.61
2022-11-04T00:48:57.467Z,11.55
2022-11-04T00:51:23.829Z,11.57
2022-11-04T00:53:50.898Z,11.52
2022-11-04T00:56:17.005Z,11.48
2022-11-04T00:58:43.326Z,11.44
2022-11-04T01:01:16.952Z,11.34
2022-11-04T01:03:48.347Z,11.41
2022-11-04T01:06:15.090Z,11.39
2022-11-04T01:08:41.375Z,11.35
2022-11-04T01:11:08.826Z,11.43
2022-11-04T01:13:35.937Z,11.41
2022-11-04T01:16:04.463Z,11.43
2022-11-04T01:18:31.227Z,11.52
2022-11-04T01:21:04.092Z,11.51
2022-11-04T01:23:31.460Z,11.46
2022-11-04T01:25:57.571Z,11.53
2022-11-04T01:28:24.227Z,11.42
2022-11-04T01:30:50.269Z,11.44
2022-11-04T01:33:16.649Z,11.36
2022-11-04T01:35:42.977Z,11.42
2022-11-04T01:38:10.077Z,11.49
2022-11-04T01:40:37.829Z,11.43
2022-11-04T01:43:12.185Z,11.48
2022-11-04T01:45:38.562Z,11.43
2022-11-04T01:48:20.092Z,11.43
2022-11-04T01:50:46.985Z,11.51
2022-11-04T01:53:18.105Z,11.47
2022-11-04T01:55:51.852Z,11.49
2022-11-04T01:58:21.123Z,11.41
2022-11-04T02:00:48.270Z,11.35
2022-11-04T02:03:33.682Z,11.36
2022-11-04T02:06:01.906Z,11.28
2022-11-04T02:08:28.392Z,11.26
2022-11-04T02:11:00.032Z,11.22
2022-11-04T02:13:27.872Z,11.07
2022-11-04T02:16:48.097Z,11.14
2022-11-04T02:19:52.963Z,11.13
2022-11-04T02:22:36.107Z,11.11
2022-11-04T02:25:39.475Z,10.99
2022-11-04T02:28:25.493Z,11.00
2022-11-04T02:31:27.426Z,10.99
2022-11-04T02:34:07.818Z,11.00
2022-11-04T02:37:02.915Z,11.01
2022-11-04T02:39:42.385Z,10.91
2022-11-04T02:42:21.558Z,10.78
2022-11-04T02:45:21.695Z,10.88
2022-11-04T02:48:02.264Z,10.85
2022-11-04T02:50:37.544Z,10.91
2022-11-04T02:53:14.184Z,10.83
2022-11-04T02:55:45.882Z,10.72
2022-11-04T02:58:17.631Z,10.70
2022-11-04T03:00:46.226Z,10.65
2022-11-04T03:03:17.592Z,10.65
2022-11-04T03:05:47.240Z,10.70
2022-11-04T03:08:23.740Z,10.70
2022-11-04T03:10:54.126Z,10.68
2022-11-04T03:13:31.502Z,10.72
2022-11-04T03:16:02.181Z,10.68
2022-11-04T03:19:01.631Z,10.64
2022-11-04T03:21:32.576Z,10.63
2022-11-04T03:24:01.164Z,10.62
2022-11-04T03:27:02.416Z,10.48
2022-11-04T03:29:36.801Z,10.52
2022-11-04T03:32:24.425Z,10.47
2022-11-04T03:34:51.458Z,10.56
2022-11-04T03:37:18.116Z,10.54
2022-11-04T03:39:44.408Z,10.55
2022-11-04T03:42:22.474Z,10.53
2022-11-04T03:44:50.595Z,10.52
2022-11-04T03:47:19.781Z,10.50
2022-11-04T03:49:48.054Z,10.56
2022-11-04T03:52:15.825Z,10.54
2022-11-04T03:54:42.035Z,10.65
2022-11-04T03:57:29.825Z,10.49
2022-11-04T04:00:05.969Z,10.42
2022-11-04T04:02:57.282Z,10.48
2022-11-04T04:05:29.084Z,10.55
2022-11-04T04:08:10.827Z,10.48
2022-11-04T04:10:41.191Z,10.55
2022-11-04T04:13:18.214Z,10.56
2022-11-04T04:16:10.705Z,10.44
2022-11-04T04:18:42.493Z,10.31
2022-11-04T04:21:14.052Z,10.20
2022-11-04T04:24:01.223Z,10.15
2022-11-04T04:26:48.224Z,10.20
2022-11-04T04:29:17.077Z,10.20
2022-11-04T04:31:48.952Z,10.11
2022-11-04T04:34:21.748Z,10.06
2022-11-04T04:37:06.087Z,10.00
2022-11-04T04:40:06.591Z,9.97
2022-11-04T04:42:52.741Z,10.07
2022-11-04T04:45:41.493Z,10.15
2022-11-04T04:48:11.285Z,10.21
2022-11-04T04:50:43.008Z,10.19
2022-11-04T04:53:09.430Z,10.15
2022-11-04T04:55:40.664Z,10.15
2022-11-04T04:58:09.297Z,10.10
2022-11-04T05:00:35.754Z,10.04
2022-11-04T05:03:01.996Z,10.00
2022-11-04T05:05:28.557Z,10.13
2022-11-04T05:07:54.691Z,10.18
2022-11-04T05:10:21.157Z,10.23
2022-11-04T05:13:06.146Z,10.25
2022-11-04T05:15:32.226Z,10.29
2022-11-04T05:18:01.649Z,10.28
2022-11-04T05:20:33.478Z,10.32
2022-11-04T05:23:00.001Z,10.28
2022-11-04T05:25:26.210Z,10.28
2022-11-04T05:27:52.523Z,10.31
2022-11-04T05:30:18.594Z,10.28
2022-11-04T05:32:44.921Z,10.29
2022-11-04T05:35:11.118Z,10.32
2022-11-04T05:37:37.766Z,10.33
2022-11-04T05:40:04.279Z,10.34
2022-11-04T05:42:31.130Z,10.36
2022-11-04T05:44:57.285Z,10.25
2022-11-04T05:47:23.632Z,10.29
2022-11-04T05:49:49.675Z,10.33
2022-11-04T05:52:15.989Z,10.35
2022-11-04T05:54:42.052Z,10.38
2022-11-04T05:57:09.908Z,10.40
2022-11-04T05:59:36.004Z,10.40
2022-11-04T06:02:02.918Z,10.36
2022-11-04T06:04:29.202Z,10.49
2022-11-04T06:06:55.739Z,10.53
2022-11-04T06:09:38.191Z,10.49
2022-11-04T06:12:10.385Z,10.59
2022-11-04T06:14:36.926Z,10.53
2022-11-04T06:17:03.709Z,10.62
2022-11-04T06:19:30.075Z,10.55
2022-11-04T06:21:56.732Z,10.51
2022-11-04T06:24:23.368Z,10.53
2022-11-04T06:26:49.947Z,10.62
2022-11-04T06:29:16.197Z,10.61
2022-11-04T06:31:43.082Z,10.65
2022-11-04T06:34:09.347Z,10.72
2022-11-04T06:36:35.887Z,10.71
2022-11-04T06:39:04.998Z,10.78
2022-11-04T06:41:31.991Z,10.91
2022-11-04T06:43:58.070Z,10.96
2022-11-04T06:46:44.624Z,11.08
2022-11-04T06:49:22.328Z,11.07
2022-11-04T06:51:49.300Z,11.12
2022-11-04T06:54:16.348Z,11.22
2022-11-04T06:56:43.558Z,11.14
2022-11-04T06:59:15.580Z,11.26
2022-11-04T07:01:42.717Z,11.23
2022-11-04T07:04:09.571Z,11.47
2022-11-04T07:06:38.507Z,11.37
2022-11-04T07:09:07.521Z,11.29
2022-11-04T07:11:35.281Z,11.29
2022-11-04T07:14:02.023Z,11.23
2022-11-04T07:16:28.448Z,11.25
2022-11-04T07:18:55.171Z,11.22
2022-11-04T07:21:22.075Z,11.28
2022-11-04T07:23:48.299Z,11.34
2022-11-04T07:26:14.655Z,11.45
2022-11-04T07:28:40.812Z,11.52
2022-11-04T07:31:09.877Z,11.60
2022-11-04T07:33:36.225Z,11.65
2022-11-04T07:36:07.817Z,11.68
2022-11-04T07:38:34.062Z,11.86
2022-11-04T07:41:01.695Z,11.99
2022-11-04T07:43:29.268Z,12.11
2022-11-04T07:46:02.570Z,12.30
2022-11-04T07:48:29.242Z,12.48
2022-11-04T07:50:58.205Z,12.58
2022-11-04T07:53:28.491Z,12.74
2022-11-04T07:55:55.012Z,12.89
2022-11-04T07:58:22.760Z,13.04
2022-11-04T08:00:49.937Z,13.15
2022-11-04T08:03:16.433Z,13.19
2022-11-04T08:05:43.002Z,13.25
2022-11-04T08:08:09.294Z,13.29
2022-11-04T08:10:35.779Z,13.34
2022-11-04T08:13:01.819Z,13.40
2022-11-04T08:15:28.597Z,13.50
2022-11-04T08:17:54.944Z,13.48
2022-11-04T08:20:21.522Z,13.62
2022-11-04T08:22:47.749Z,13.72
2022-11-04T08:25:14.282Z,13.72
2022-11-04T08:27:40.688Z,13.69
2022-11-04T08:30:08.181Z,13.76
2022-11-04T08:32:34.786Z,13.88
2022-11-04T08:35:01.209Z,13.94
2022-11-04T08:37:27.419Z,14.10
2022-11-04T08:39:53.798Z,14.20
2022-11-04T08:42:19.963Z,14.32
2022-11-04T08:44:50.870Z,14.35
2022-11-04T08:47:17.748Z,14.42
2022-11-04T08:49:44.334Z,14.49
2022-11-04T08:52:10.435Z,14.62
2022-11-04T08:54:36.817Z,14.63
2022-11-04T08:57:02.992Z,14.66
2022-11-04T08:59:29.329Z,14.55
2022-11-04T09:01:55.547Z,14.58
2022-11-04T09:04:23.189Z,14.62
2022-11-04T09:06:50.333Z,14.62
2022-11-04T09:09:17.960Z,14.78
2022-11-04T09:11:45.342Z,14.66
2022-11-04T09:14:11.861Z,14.68
2022-11-04T09:16:39.425Z,14.64
2022-11-04T09:19:06.454Z,14.61
2022-11-04T09:21:32.658Z,14.72
2022-11-04T09:23:59.021Z,14.71
2022-11-04T09:26:25.995Z,14.75
2022-11-04T09:28:57.103Z,14.81
2022-11-04T09:31:24.987Z,14.73
2022-11-04T09:33:52.855Z,14.67
2022-11-04T09:36:18.912Z,14.74
2022-11-04T09:38:45.593Z,14.70
2022-11-04T09:41:37.957Z,14.69
2022-11-04T09:44:28.134Z,14.65
2022-11-04T09:46:59.643Z,14.61
2022-11-04T09:49:33.525Z,14.64
2022-11-04T09:52:12.881Z,14.62
2022-11-04T09:54:53.007Z,14.69
2022-11-04T09:57:19.481Z,14.78
2022-11-04T09:59:46.733Z,14.85
2022-11-04T10:02:42.545Z,14.99
2022-11-04T10:05:21.254Z,14.97
2022-11-04T10:08:26.471Z,15.00
2022-11-04T10:11:23.201Z,15.15
2022-11-04T10:13:52.515Z,15.20
2022-11-04T10:16:33.985Z,15.04
2022-11-04T10:19:29.639Z,15.10
2022-11-04T10:22:04.472Z,15.10
2022-11-04T10:24:45.195Z,15.17
2022-11-04T10:27:16.621Z,15.09
2022-11-04T10:29:47.653Z,15.10
2022-11-04T10:32:23.634Z,15.06
2022-11-04T10:34:59.110Z,15.04
2022-11-04T10:37:26.414Z,15.11
2022-11-04T10:40:05.343Z,15.19
2022-11-04T10:42:32.245Z,15.34
2022-11-04T10:44:58.484Z,15.23
2022-11-04T10:47:45.986Z,15.28
2022-11-04T10:50:28.268Z,15.37
2022-11-04T10:53:12.939Z,15.42
2022-11-04T10:55:54.062Z,15.44
2022-11-04T10:58:26.482Z,15.31
2022-11-04T11:00:53.835Z,15.31
2022-11-04T11:03:36.332Z,15.25
2022-11-04T11:06:26.334Z,15.06
2022-11-04T11:08:56.118Z,15.09
2022-11-04T11:11:47.129Z,15.17
2022-11-04T11:14:19.365Z,15.25
2022-11-04T11:16:45.650Z,15.36
2022-11-04T11:19:16.800Z,15.34
2022-11-04T11:21:48.473Z,15.36
2022-11-04T11:24:19.655Z,15.46
2022-11-04T11:26:49.713Z,15.41
2022-11-04T11:29:21.420Z,15.37
2022-11-04T11:31:49.420Z,15.37
2022-11-04T11:34:25.984Z,15.37
2022-11-04T11:36:54.657Z,15.44
2022-11-04T11:39:27.334Z,15.42
2022-11-04T11:41:56.134Z,15.50
2022-11-04T11:44:37.886Z,15.49
2022-11-04T11:47:08.649Z,15.47
2022-11-04T11:49:37.369Z,15.38
2022-11-04T13:57:29.768Z,12.89
2022-11-04T14:03:36.161Z,13.04
2022-11-04T14:06:06.919Z,13.16
2022-11-04T14:08:34.503Z,13.26
2022-11-04T14:11:05.550Z,13.32
2022-11-04T14:13:36.790Z,13.38
2022-11-04T14:16:10.781Z,13.47
2022-11-04T14:18:45.028Z,13.59
2022-11-04T14:21:28.822Z,13.65
2022-11-04T14:23:58.186Z,13.72
2022-11-04T14:26:44.829Z,13.75
2022-11-04T14:29:22.667Z,13.75
2022-11-04T14:31:52.656Z,13.86
2022-11-04T14:34:34.861Z,13.91
2022-11-04T14:37:17.202Z,13.97
2022-11-04T14:39:43.652Z,13.96
2022-11-04T14:42:14.208Z,13.99
2022-11-04T14:44:49.667Z,14.03
2022-11-04T14:47:29.079Z,14.09
2022-11-04T14:49:58.443Z,14.05
2022-11-04T14:52:31.802Z,14.02
2022-11-04T14:55:05.670Z,13.85
2022-11-04T14:57:38.138Z,13.80
2022-11-04T15:00:26.114Z,13.63
2022-11-04T15:03:35.522Z,13.64
2022-11-04T15:06:02.567Z,13.61
2022-11-04T15:08:39.264Z,13.47
2022-11-04T15:11:17.390Z,13.48
2022-11-04T15:13:50.044Z,13.43
2022-11-04T15:16:20.990Z,13.33
2022-11-04T15:18:49.296Z,13.27
2022-11-04T15:21:15.604Z,13.16
2022-11-04T15:23:48.376Z,13.22
2022-11-04T15:26:31.241Z,13.07
2022-11-04T15:29:01.261Z,13.01
2022-11-04T15:31:30.431Z,13.06
2022-11-04T15:34:00.680Z,13.08
2022-11-04T15:36:31.201Z,12.98
2022-11-04T15:39:04.928Z,13.01
2022-11-04T15:41:51.094Z,13.03
2022-11-04T15:44:26.660Z,12.93
2022-11-04T15:46:55.697Z,12.94
2022-11-04T15:49:30.708Z,12.97
2022-11-04T15:52:06.444Z,12.93
2022-11-04T15:54:37.014Z,12.99
2022-11-04T15:57:13.883Z,13.03
2022-11-04T16:00:08.023Z,12.98
2022-11-04T16:02:49.986Z,13.04
2022-11-04T16:05:16.704Z,13.06
2022-11-04T16:07:51.054Z,13.04
2022-11-04T16:10:32.596Z,13.02
2022-11-04T16:13:21.673Z,13.07
2022-11-04T16:15:52.449Z,13.09
2022-11-04T16:18:23.452Z,13.08
2022-11-04T16:20:52.576Z,13.10
2022-11-04T16:23:24.098Z,13.13
2022-11-04T16:26:02.147Z,13.10
2022-11-04T16:28:30.816Z,13.06
2022-11-04T16:31:03.603Z,13.04
2022-11-04T16:33:30.168Z,13.06
2022-11-04T16:35:56.385Z,13.09
2022-11-04T16:38:23.031Z,12.99
2022-11-04T16:40:50.325Z,13.07
2022-11-04T16:43:20.248Z,13.14
2022-11-04T16:45:53.611Z,13.12
2022-11-04T16:48:23.110Z,13.19
2022-11-04T16:50:49.338Z,13.19
2022-11-04T16:53:15.989Z,13.18
2022-11-04T16:55:43.897Z,13.20
2022-11-04T16:58:16.863Z,13.16
2022-11-04T17:00:43.500Z,13.09
2022-11-04T17:03:22.660Z,13.10
2022-11-04T17:05:50.876Z,13.05
2022-11-04T17:08:17.333Z,13.02
2022-11-04T17:10:43.896Z,13.02
2022-11-04T17:13:11.089Z,13.09
2022-11-04T17:15:38.241Z,13.00
2022-11-04T17:18:04.934Z,13.09
2022-11-04T17:20:32.248Z,13.05
2022-11-04T17:22:59.550Z,13.03
2022-11-04T17:25:28.722Z,12.97
2022-11-04T17:27:55.277Z,12.94
2022-11-04T17:30:22.737Z,12.97
2022-11-04T17:32:49.563Z,12.87
2022-11-04T17:35:16.465Z,12.88
2022-11-04T17:37:43.663Z,12.85
2022-11-04T17:40:17.342Z,12.80
2022-11-04T17:43:08.623Z,12.76
2022-11-04T17:45:39.804Z,12.69
2022-11-04T17:48:07.468Z,12.71
2022-11-04T17:50:34.182Z,12.68
2022-11-04T17:53:00.704Z,12.67
2022-11-04T17:55:27.857Z,12.72
2022-11-04T17:57:55.067Z,12.73
2022-11-04T18:00:23.751Z,12.76
2022-11-04T18:02:50.691Z,12.81
2022-11-04T18:05:17.052Z,12.76
2022-11-04T18:07:43.705Z,12.81
2022-11-04T18:10:10.748Z,12.79
2022-11-04T18:12:37.602Z,12.77
2022-11-04T18:15:09.588Z,12.69
2022-11-04T18:17:41.190Z,12.61
2022-11-04T18:20:13.672Z,12.54
2022-11-04T18:22:42.541Z,12.54
2022-11-04T18:25:10.517Z,12.59
2022-11-04T18:27:37.188Z,12.54
2022-11-04T18:30:04.232Z,12.48
2022-11-04T18:32:30.933Z,12.49
2022-11-04T18:34:57.337Z,12.54
2022-11-04T18:37:23.867Z,12.56
2022-11-04T18:39:50.146Z,12.55
2022-11-04T18:42:16.782Z,12.44
2022-11-04T18:44:43.685Z,12.46
2022-11-04T18:47:10.288Z,12.45
2022-11-04T18:49:36.574Z,12.50
2022-11-04T18:52:03.533Z,12.49
2022-11-04T18:54:29.966Z,12.44
2022-11-04T18:56:56.711Z,12.38
2022-11-04T18:59:23.036Z,12.43
2022-11-04T19:01:51.771Z,12.44
2022-11-04T19:04:18.330Z,12.39
2022-11-04T19:06:45.436Z,12.38
2022-11-04T19:12:20.625Z,12.39
2022-11-04T19:14:47.141Z,12.29
2022-11-04T19:17:14.298Z,12.40
2022-11-04T19:19:40.663Z,12.42
2022-11-04T19:22:07.257Z,12.43
2022-11-04T19:24:33.700Z,12.42
2022-11-04T19:27:00.404Z,12.39
2022-11-04T19:29:28.420Z,12.38
2022-11-04T19:31:55.092Z,12.31
2022-11-04T19:34:21.328Z,12.37
2022-11-04T19:36:47.978Z,12.36
2022-11-04T19:39:14.438Z,12.44
2022-11-04T19:41:59.775Z,12.40
2022-11-04T19:44:26.238Z,12.42
2022-11-04T19:46:52.911Z,12.43
2022-11-04T19:49:19.887Z,12.44
2022-11-04T19:51:46.580Z,12.41
2022-11-04T19:54:13.165Z,12.47
2022-11-04T19:56:40.287Z,12.48
2022-11-04T19:59:08.743Z,12.44
2022-11-04T20:01:35.682Z,12.44
2022-11-04T20:04:03.983Z,12.51
2022-11-04T20:06:35.027Z,12.49
2022-11-04T20:09:06.735Z,12.42
2022-11-04T20:11:34.563Z,12.40
2022-11-04T20:14:07.631Z,12.40
2022-11-04T20:16:38.742Z,12.46
2022-11-04T20:19:05.213Z,12.30
2022-11-04T20:21:35.744Z,12.39
2022-11-04T20:24:05.381Z,12.35
2022-11-04T20:26:34.363Z,12.37
2022-11-04T20:29:01.853Z,12.34
2022-11-04T20:31:32.271Z,12.20
2022-11-04T20:34:00.761Z,12.10
2022-11-04T20:36:28.415Z,12.04
2022-11-04T20:38:56.731Z,12.06
2022-11-04T20:41:23.405Z,12.00
2022-11-04T20:43:50.507Z,11.91
2022-11-04T20:46:24.064Z,11.92
2022-11-04T20:48:51.132Z,11.89
2022-11-04T20:51:21.191Z,12.00
2022-11-04T20:53:48.074Z,12.02
2022-11-04T20:56:17.245Z,11.98
2022-11-04T20:58:44.924Z,12.03
2022-11-04T21:01:16.000Z,12.08
2022-11-04T21:03:43.170Z,12.02
2022-11-04T21:06:10.984Z,12.09
2022-11-04T21:08:37.197Z,12.01
2022-11-04T21:11:05.294Z,12.03
2022-11-04T21:13:35.349Z,11.89
2022-11-04T21:16:02.662Z,11.96
2022-11-04T21:18:29.620Z,11.90
2022-11-04T21:20:56.806Z,11.95
2022-11-04T21:23:23.729Z,11.99
2022-11-04T21:25:53.962Z,11.94
2022-11-04T21:28:20.570Z,11.98
2022-11-04T21:30:49.261Z,12.00
2022-11-04T21:33:16.784Z,12.04
2022-11-04T21:35:43.332Z,12.00
2022-11-04T21:38:15.542Z,11.98
2022-11-04T21:40:42.816Z,11.93
2022-11-04T21:43:09.911Z,12.03
2022-11-04T21:45:37.264Z,12.02
2022-11-04T21:48:04.097Z,12.01
2022-11-04T21:50:30.894Z,11.89
2022-11-04T21:52:57.756Z,11.84
2022-11-04T21:55:24.422Z,11.86
2022-11-04T21:57:50.515Z,11.82
2022-11-04T22:00:17.235Z,11.87
2022-11-04T22:02:43.698Z,11.96
2022-11-04T22:05:11.100Z,12.00
2022-11-04T22:07:57.141Z,12.06
2022-11-04T22:10:24.882Z,12.14
2022-11-04T22:12:51.526Z,12.16
2022-11-04T22:15:38.905Z,12.06
2022-11-04T22:18:06.195Z,11.94
2022-11-04T22:20:34.979Z,11.98
2022-11-04T22:23:01.371Z,11.93
2022-11-04T22:25:29.421Z,12.00
2022-11-04T22:27:55.871Z,12.00
2022-11-04T22:30:22.684Z,11.88
2022-11-04T22:32:49.038Z,11.77
2022-11-04T22:35:15.597Z,11.67
2022-11-04T22:37:41.894Z,11.61
2022-11-04T22:40:08.870Z,11.72
2022-11-04T22:42:34.993Z,11.91
2022-11-04T22:45:01.407Z,11.96
2022-11-04T22:47:27.659Z,11.95
2022-11-04T22:49:54.408Z,11.85
2022-11-04T22:52:20.592Z,11.78
2022-11-04T22:54:47.188Z,11.63
2022-11-04T22:57:13.308Z,11.61
2022-11-04T22:59:39.725Z,11.55
2022-11-04T23:02:06.176Z,11.47
2022-11-04T23:04:32.753Z,11.44
2022-11-04T23:06:59.159Z,11.45
2022-11-04T23:09:25.590Z,11.42
2022-11-04T23:12:10.143Z,11.46
2022-11-04T23:14:42.196Z,11.55
2022-11-04T23:17:39.208Z,11.54
2022-11-04T23:20:11.773Z,11.69
2022-11-04T23:22:57.053Z,11.73
2022-11-04T23:25:24.731Z,11.61
2022-11-04T23:28:12.343Z,11.67
2022-11-04T23:30:42.151Z,11.65
2022-11-04T23:33:13.815Z,11.70
2022-11-04T23:36:04.415Z,11.77
2022-11-04T23:38:31.213Z,11.63
2022-11-04T23:41:24.959Z,11.80
2022-11-04T23:43:51.210Z,11.77
2022-11-04T23:46:42.209Z,11.91
2022-11-04T23:49:29.277Z,11.98
2022-11-04T23:52:14.070Z,12.06
2022-11-04T23:54:58.793Z,11.79
2022-11-04T23:57:43.476Z,11.93
